sensor_id;sensor_type;location;lat;lon;timestamp;temperature;humidity
4695;DHT22;2361;49.540;8.390;2023-04-01T00:00:28;11.90;99.90
4695;DHT22;2361;49.540;8.390;2023-04-01T00:02:55;11.90;99.90
4695;DHT22;2361;49.540;8.390;2023-04-01T00:05:22;11.90;99.90
4695;DHT22;2361;49.540;8.390;2023-04-01T00:07:51;11.80;99.90
4695;DHT22;2361;49.540;8.390;2023-04-01T00:10:18;11.90;99.90
4695;DHT22;2361;49.540;8.390;2023-04-01T00:12:45;11.90;99.90
4695;DHT22;2361;49.540;8.390;2023-04-01T00:15:12;11.90;99.90
4695;DHT22;2361;49.540;8.390;2023-04-01T00:17:39;11.90;99.90
4695;DHT22;2361;49.540;8.390;2023-04-01T00:20:07;11.90;99.90
4695;DHT22;2361;49.540;8.390;2023-04-01T00:22:34;11.80;99.90
4695;DHT22;2361;49.540;8.390;2023-04-01T00:25:02;11.80;99.90
4695;DHT22;2361;49.540;8.390;2023-04-01T00:27:29;11.80;99.90
4695;DHT22;2361;49.540;8.390;2023-04-01T00:29:56;11.80;99.90
4695;DHT22;2361;49.540;8.390;2023-04-01T00:32:23;11.80;99.90
4695;DHT22;2361;49.540;8.390;2023-04-01T00:34:51;11.80;99.90
4695;DHT22;2361;49.540;8.390;2023-04-01T00:37:20;11.80;99.90
4695;DHT22;2361;49.540;8.390;2023-04-01T00:39:47;11.80;99.90
4695;DHT22;2361;49.540;8.390;2023-04-01T00:42:14;11.80;99.90
4695;DHT22;2361;49.540;8.390;2023-04-01T00:44:42;11.80;99.90
4695;DHT22;2361;49.540;8.390;2023-04-01T00:47:09;11.80;99.90
4695;DHT22;2361;49.540;8.390;2023-04-01T00:49:40;11.70;99.90
4695;DHT22;2361;49.540;8.390;2023-04-01T00:52:11;11.80;99.90
4695;DHT22;2361;49.540;8.390;2023-04-01T00:54:44;11.80;99.90
4695;DHT22;2361;49.540;8.390;2023-04-01T00:59:46;11.80;99.90
4695;DHT22;2361;49.540;8.390;2023-04-01T01:02:16;11.80;99.90
4695;DHT22;2361;49.540;8.390;2023-04-01T01:04:44;11.80;99.90
4695;DHT22;2361;49.540;8.390;2023-04-01T01:07:24;11.80;99.90
4695;DHT22;2361;49.540;8.390;2023-04-01T01:10:24;11.80;99.90
4695;DHT22;2361;49.540;8.390;2023-04-01T01:15:32;11.80;99.90
4695;DHT22;2361;49.540;8.390;2023-04-01T01:24:32;11.70;99.90
4695;DHT22;2361;49.540;8.390;2023-04-01T01:27:17;11.70;99.90
4695;DHT22;2361;49.540;8.390;2023-04-01T01:30:01;11.70;99.90
4695;DHT22;2361;49.540;8.390;2023-04-01T01:32:48;11.80;99.90
4695;DHT22;2361;49.540;8.390;2023-04-01T01:35:26;11.80;99.90
4695;DHT22;2361;49.540;8.390;2023-04-01T01:38:17;11.70;99.90
4695;DHT22;2361;49.540;8.390;2023-04-01T01:40:50;11.70;99.90
4695;DHT22;2361;49.540;8.390;2023-04-01T01:43:26;11.70;99.90
4695;DHT22;2361;49.540;8.390;2023-04-01T01:46:00;11.70;99.90
4695;DHT22;2361;49.540;8.390;2023-04-01T01:48:31;11.70;99.90
4695;DHT22;2361;49.540;8.390;2023-04-01T01:50:59;11.60;99.90
4695;DHT22;2361;49.540;8.390;2023-04-01T01:53:26;11.60;99.90
4695;DHT22;2361;49.540;8.390;2023-04-01T01:55:53;11.70;99.90
4695;DHT22;2361;49.540;8.390;2023-04-01T01:58:33;11.70;99.90
4695;DHT22;2361;49.540;8.390;2023-04-01T02:01:13;11.70;99.90
4695;DHT22;2361;49.540;8.390;2023-04-01T02:03:43;11.70;99.90
4695;DHT22;2361;49.540;8.390;2023-04-01T02:06:15;11.70;99.90
4695;DHT22;2361;49.540;8.390;2023-04-01T02:08:55;11.70;99.90
4695;DHT22;2361;49.540;8.390;2023-04-01T02:12:01;11.70;99.90
4695;DHT22;2361;49.540;8.390;2023-04-01T02:14:44;11.70;99.90
4695;DHT22;2361;49.540;8.390;2023-04-01T02:17:20;11.70;99.90
4695;DHT22;2361;49.540;8.390;2023-04-01T02:20:02;11.70;99.90
4695;DHT22;2361;49.540;8.390;2023-04-01T02:22:36;11.60;99.90
4695;DHT22;2361;49.540;8.390;2023-04-01T02:25:13;11.50;99.90
4695;DHT22;2361;49.540;8.390;2023-04-01T02:27:44;11.50;99.90
4695;DHT22;2361;49.540;8.390;2023-04-01T02:30:13;11.50;99.90
4695;DHT22;2361;49.540;8.390;2023-04-01T02:32:41;11.50;99.90
4695;DHT22;2361;49.540;8.390;2023-04-01T02:35:10;11.50;99.90
4695;DHT22;2361;49.540;8.390;2023-04-01T02:37:39;11.50;99.90
4695;DHT22;2361;49.540;8.390;2023-04-01T02:40:12;11.50;99.90
4695;DHT22;2361;49.540;8.390;2023-04-01T02:42:40;11.50;99.90
4695;DHT22;2361;49.540;8.390;2023-04-01T02:45:12;11.40;99.90
4695;DHT22;2361;49.540;8.390;2023-04-01T02:47:40;11.40;99.90
4695;DHT22;2361;49.540;8.390;2023-04-01T02:50:08;11.40;99.90
4695;DHT22;2361;49.540;8.390;2023-04-01T02:52:35;11.40;99.90
4695;DHT22;2361;49.540;8.390;2023-04-01T02:55:03;11.40;99.90
4695;DHT22;2361;49.540;8.390;2023-04-01T02:57:30;11.40;99.90
4695;DHT22;2361;49.540;8.390;2023-04-01T02:59:57;11.40;99.90
4695;DHT22;2361;49.540;8.390;2023-04-01T03:02:24;11.40;99.90
4695;DHT22;2361;49.540;8.390;2023-04-01T03:04:52;11.40;99.90
4695;DHT22;2361;49.540;8.390;2023-04-01T03:07:18;11.40;99.90
4695;DHT22;2361;49.540;8.390;2023-04-01T03:09:45;11.40;99.90
4695;DHT22;2361;49.540;8.390;2023-04-01T03:12:12;11.30;99.90
4695;DHT22;2361;49.540;8.390;2023-04-01T03:14:39;11.30;99.90
4695;DHT22;2361;49.540;8.390;2023-04-01T03:17:06;11.30;99.90
4695;DHT22;2361;49.540;8.390;2023-04-01T03:19:33;11.30;99.90
4695;DHT22;2361;49.540;8.390;2023-04-01T03:22:01;11.30;99.90
4695;DHT22;2361;49.540;8.390;2023-04-01T03:24:27;11.30;99.90
4695;DHT22;2361;49.540;8.390;2023-04-01T03:26:54;11.30;99.90
4695;DHT22;2361;49.540;8.390;2023-04-01T03:29:21;11.30;99.90
4695;DHT22;2361;49.540;8.390;2023-04-01T03:31:48;11.30;99.90
4695;DHT22;2361;49.540;8.390;2023-04-01T03:34:15;11.30;99.90
4695;DHT22;2361;49.540;8.390;2023-04-01T03:36:42;11.30;99.90
4695;DHT22;2361;49.540;8.390;2023-04-01T03:39:09;11.30;99.90
4695;DHT22;2361;49.540;8.390;2023-04-01T03:41:37;11.30;99.90
4695;DHT22;2361;49.540;8.390;2023-04-01T03:44:05;11.30;99.90
4695;DHT22;2361;49.540;8.390;2023-04-01T03:46:32;11.30;99.90
4695;DHT22;2361;49.540;8.390;2023-04-01T03:48:59;11.30;99.90
4695;DHT22;2361;49.540;8.390;2023-04-01T03:51:26;11.30;99.90
4695;DHT22;2361;49.540;8.390;2023-04-01T03:53:53;11.30;99.90
4695;DHT22;2361;49.540;8.390;2023-04-01T03:56:20;11.30;99.90
4695;DHT22;2361;49.540;8.390;2023-04-01T03:58:47;11.30;99.90
4695;DHT22;2361;49.540;8.390;2023-04-01T04:01:21;11.30;99.90
4695;DHT22;2361;49.540;8.390;2023-04-01T04:03:49;11.20;99.90
4695;DHT22;2361;49.540;8.390;2023-04-01T04:06:18;11.20;99.90
4695;DHT22;2361;49.540;8.390;2023-04-01T04:08:45;11.20;99.90
4695;DHT22;2361;49.540;8.390;2023-04-01T04:11:12;11.20;99.90
4695;DHT22;2361;49.540;8.390;2023-04-01T04:13:40;11.20;99.90
4695;DHT22;2361;49.540;8.390;2023-04-01T04:16:08;11.20;99.90
4695;DHT22;2361;49.540;8.390;2023-04-01T04:18:37;11.20;99.90
4695;DHT22;2361;49.540;8.390;2023-04-01T04:21:04;11.20;99.90
4695;DHT22;2361;49.540;8.390;2023-04-01T04:23:31;11.30;99.90
4695;DHT22;2361;49.540;8.390;2023-04-01T04:26:07;11.30;99.90
4695;DHT22;2361;49.540;8.390;2023-04-01T04:28:36;11.30;99.90
4695;DHT22;2361;49.540;8.390;2023-04-01T04:31:04;11.30;99.90
4695;DHT22;2361;49.540;8.390;2023-04-01T04:33:32;11.30;99.90
4695;DHT22;2361;49.540;8.390;2023-04-01T04:36:00;11.30;99.90
4695;DHT22;2361;49.540;8.390;2023-04-01T04:38:27;11.30;99.90
4695;DHT22;2361;49.540;8.390;2023-04-01T04:40:54;11.40;99.90
4695;DHT22;2361;49.540;8.390;2023-04-01T04:43:21;11.40;99.90
4695;DHT22;2361;49.540;8.390;2023-04-01T04:45:48;11.40;99.90
4695;DHT22;2361;49.540;8.390;2023-04-01T04:48:16;11.40;99.90
4695;DHT22;2361;49.540;8.390;2023-04-01T04:50:49;11.40;99.90
4695;DHT22;2361;49.540;8.390;2023-04-01T04:53:18;11.40;99.90
4695;DHT22;2361;49.540;8.390;2023-04-01T04:55:49;11.40;99.90
4695;DHT22;2361;49.540;8.390;2023-04-01T04:58:17;11.40;99.90
4695;DHT22;2361;49.540;8.390;2023-04-01T05:00:45;11.40;99.90
4695;DHT22;2361;49.540;8.390;2023-04-01T05:03:13;11.50;99.90
4695;DHT22;2361;49.540;8.390;2023-04-01T05:05:52;11.50;99.90
4695;DHT22;2361;49.540;8.390;2023-04-01T05:08:20;11.50;99.90
4695;DHT22;2361;49.540;8.390;2023-04-01T05:10:47;11.50;99.90
4695;DHT22;2361;49.540;8.390;2023-04-01T05:13:14;11.60;99.90
4695;DHT22;2361;49.540;8.390;2023-04-01T05:15:41;11.50;99.90
4695;DHT22;2361;49.540;8.390;2023-04-01T05:18:08;11.50;99.90
4695;DHT22;2361;49.540;8.390;2023-04-01T05:20:35;11.50;99.90
4695;DHT22;2361;49.540;8.390;2023-04-01T05:23:02;11.50;99.90
4695;DHT22;2361;49.540;8.390;2023-04-01T05:25:29;11.50;99.90
4695;DHT22;2361;49.540;8.390;2023-04-01T05:27:56;11.50;99.90
4695;DHT22;2361;49.540;8.390;2023-04-01T05:30:23;11.40;99.90
4695;DHT22;2361;49.540;8.390;2023-04-01T05:32:50;11.50;99.90
4695;DHT22;2361;49.540;8.390;2023-04-01T05:35:17;11.50;99.90
4695;DHT22;2361;49.540;8.390;2023-04-01T05:37:44;11.40;99.90
4695;DHT22;2361;49.540;8.390;2023-04-01T05:40:11;11.40;99.90
4695;DHT22;2361;49.540;8.390;2023-04-01T05:42:38;11.40;99.90
4695;DHT22;2361;49.540;8.390;2023-04-01T05:45:05;11.40;99.90
4695;DHT22;2361;49.540;8.390;2023-04-01T05:47:33;11.40;99.90
4695;DHT22;2361;49.540;8.390;2023-04-01T05:50:00;11.40;99.90
4695;DHT22;2361;49.540;8.390;2023-04-01T05:52:27;11.40;99.90
4695;DHT22;2361;49.540;8.390;2023-04-01T05:54:54;11.40;99.90
4695;DHT22;2361;49.540;8.390;2023-04-01T05:57:21;11.30;99.90
4695;DHT22;2361;49.540;8.390;2023-04-01T05:59:48;11.30;99.90
4695;DHT22;2361;49.540;8.390;2023-04-01T06:02:17;11.30;99.90
4695;DHT22;2361;49.540;8.390;2023-04-01T06:04:45;11.40;99.90
4695;DHT22;2361;49.540;8.390;2023-04-01T06:07:14;11.40;99.90
4695;DHT22;2361;49.540;8.390;2023-04-01T06:09:43;11.40;99.90
4695;DHT22;2361;49.540;8.390;2023-04-01T06:12:36;11.40;99.90
4695;DHT22;2361;49.540;8.390;2023-04-01T06:15:28;11.40;99.90
4695;DHT22;2361;49.540;8.390;2023-04-01T06:18:28;11.30;99.90
4695;DHT22;2361;49.540;8.390;2023-04-01T06:24:14;11.40;99.90
4695;DHT22;2361;49.540;8.390;2023-04-01T06:42:00;11.40;99.90
4695;DHT22;2361;49.540;8.390;2023-04-01T06:45:07;11.40;99.90
4695;DHT22;2361;49.540;8.390;2023-04-01T06:50:48;11.50;99.90
4695;DHT22;2361;49.540;8.390;2023-04-01T06:53:50;11.50;99.90
4695;DHT22;2361;49.540;8.390;2023-04-01T06:56:25;11.60;99.90
4695;DHT22;2361;49.540;8.390;2023-04-01T06:59:03;11.60;99.90
4695;DHT22;2361;49.540;8.390;2023-04-01T07:01:39;11.60;99.90
4695;DHT22;2361;49.540;8.390;2023-04-01T07:04:23;11.60;99.90
4695;DHT22;2361;49.540;8.390;2023-04-01T07:07:05;11.60;99.90
4695;DHT22;2361;49.540;8.390;2023-04-01T07:09:41;11.70;99.90
4695;DHT22;2361;49.540;8.390;2023-04-01T07:12:20;11.70;99.90
4695;DHT22;2361;49.540;8.390;2023-04-01T07:14:53;11.80;99.90
4695;DHT22;2361;49.540;8.390;2023-04-01T07:17:25;11.90;99.90
4695;DHT22;2361;49.540;8.390;2023-04-01T07:20:16;11.90;99.90
4695;DHT22;2361;49.540;8.390;2023-04-01T07:22:52;12.00;99.90
4695;DHT22;2361;49.540;8.390;2023-04-01T07:25:38;12.00;99.90
4695;DHT22;2361;49.540;8.390;2023-04-01T07:28:12;12.10;99.90
4695;DHT22;2361;49.540;8.390;2023-04-01T07:31:09;12.20;99.90
4695;DHT22;2361;49.540;8.390;2023-04-01T07:36:59;12.30;99.90
4695;DHT22;2361;49.540;8.390;2023-04-01T07:39:53;12.20;99.90
4695;DHT22;2361;49.540;8.390;2023-04-01T07:51:15;12.20;99.90
4695;DHT22;2361;49.540;8.390;2023-04-01T07:54:13;12.20;99.90
4695;DHT22;2361;49.540;8.390;2023-04-01T07:57:02;12.20;99.90
4695;DHT22;2361;49.540;8.390;2023-04-01T08:06:49;12.10;99.90
4695;DHT22;2361;49.540;8.390;2023-04-01T08:09:37;12.10;99.90
4695;DHT22;2361;49.540;8.390;2023-04-01T08:15:55;12.00;99.90
4695;DHT22;2361;49.540;8.390;2023-04-01T08:21:00;12.10;99.90
4695;DHT22;2361;49.540;8.390;2023-04-01T08:23:44;12.10;99.90
4695;DHT22;2361;49.540;8.390;2023-04-01T08:26:23;12.10;99.90
4695;DHT22;2361;49.540;8.390;2023-04-01T08:29:23;12.10;99.90
4695;DHT22;2361;49.540;8.390;2023-04-01T08:31:58;12.20;99.90
4695;DHT22;2361;49.540;8.390;2023-04-01T08:34:42;12.20;99.90
4695;DHT22;2361;49.540;8.390;2023-04-01T08:37:16;12.30;99.90
4695;DHT22;2361;49.540;8.390;2023-04-01T08:39:53;12.30;99.90
4695;DHT22;2361;49.540;8.390;2023-04-01T08:42:35;12.30;99.90
4695;DHT22;2361;49.540;8.390;2023-04-01T08:52:25;12.40;99.90
4695;DHT22;2361;49.540;8.390;2023-04-01T08:58:26;12.50;99.90
4695;DHT22;2361;49.540;8.390;2023-04-01T09:04:14;12.50;99.90
4695;DHT22;2361;49.540;8.390;2023-04-01T09:10:18;12.60;99.90
4695;DHT22;2361;49.540;8.390;2023-04-01T09:28:10;12.70;99.90
4695;DHT22;2361;49.540;8.390;2023-04-01T09:36:47;12.80;99.90
4695;DHT22;2361;49.540;8.390;2023-04-01T09:45:23;13.00;99.90
4695;DHT22;2361;49.540;8.390;2023-04-01T09:55:17;13.20;99.90
4695;DHT22;2361;49.540;8.390;2023-04-01T10:01:05;13.20;99.90
4695;DHT22;2361;49.540;8.390;2023-04-01T10:30:33;13.50;99.90
4695;DHT22;2361;49.540;8.390;2023-04-01T10:36:15;13.60;99.90
4695;DHT22;2361;49.540;8.390;2023-04-01T10:39:32;13.60;99.90
4695;DHT22;2361;49.540;8.390;2023-04-01T10:45:26;13.60;99.90
4695;DHT22;2361;49.540;8.390;2023-04-01T10:48:22;13.60;99.90
4695;DHT22;2361;49.540;8.390;2023-04-01T11:06:38;13.80;99.90
4695;DHT22;2361;49.540;8.390;2023-04-01T11:21:49;14.00;99.90
4695;DHT22;2361;49.540;8.390;2023-04-01T11:24:30;14.00;99.90
4695;DHT22;2361;49.540;8.390;2023-04-01T11:30:41;13.90;99.90
4695;DHT22;2361;49.540;8.390;2023-04-01T11:33:28;13.90;99.90
4695;DHT22;2361;49.540;8.390;2023-04-01T11:39:17;13.90;99.90
4695;DHT22;2361;49.540;8.390;2023-04-01T11:45:00;13.90;99.90
4695;DHT22;2361;49.540;8.390;2023-04-01T11:56:49;13.90;99.90
4695;DHT22;2361;49.540;8.390;2023-04-01T11:59:50;13.90;99.90
4695;DHT22;2361;49.540;8.390;2023-04-01T12:02:47;13.90;99.90
4695;DHT22;2361;49.540;8.390;2023-04-01T12:05:43;13.90;99.90
4695;DHT22;2361;49.540;8.390;2023-04-01T12:14:26;14.00;99.90
4695;DHT22;2361;49.540;8.390;2023-04-01T12:17:35;14.00;99.90
4695;DHT22;2361;49.540;8.390;2023-04-01T12:20:26;14.00;99.90
4695;DHT22;2361;49.540;8.390;2023-04-01T12:31:56;14.00;99.90
4695;DHT22;2361;49.540;8.390;2023-04-01T12:35:05;14.00;99.90
4695;DHT22;2361;49.540;8.390;2023-04-01T12:38:11;14.00;99.90
4695;DHT22;2361;49.540;8.390;2023-04-01T12:47:26;14.30;99.90
4695;DHT22;2361;49.540;8.390;2023-04-01T12:50:19;14.30;99.90
4695;DHT22;2361;49.540;8.390;2023-04-01T12:53:28;14.40;99.90
4695;DHT22;2361;49.540;8.390;2023-04-01T13:02:18;14.50;99.90
4695;DHT22;2361;49.540;8.390;2023-04-01T13:07:50;14.40;99.90
4695;DHT22;2361;49.540;8.390;2023-04-01T13:10:36;14.40;99.90
4695;DHT22;2361;49.540;8.390;2023-04-01T13:16:14;14.30;99.90
4695;DHT22;2361;49.540;8.390;2023-04-01T13:26:44;13.90;99.90
4695;DHT22;2361;49.540;8.390;2023-04-01T13:29:23;14.00;99.90
4695;DHT22;2361;49.540;8.390;2023-04-01T13:35:41;14.00;99.90
4695;DHT22;2361;49.540;8.390;2023-04-01T13:44:20;14.10;99.90
4695;DHT22;2361;49.540;8.390;2023-04-01T13:56:26;14.20;99.90
4695;DHT22;2361;49.540;8.390;2023-04-01T14:02:03;14.20;99.90
4695;DHT22;2361;49.540;8.390;2023-04-01T14:05:00;14.20;99.90
4695;DHT22;2361;49.540;8.390;2023-04-01T14:08:04;14.10;99.90
4695;DHT22;2361;49.540;8.390;2023-04-01T14:13:39;14.00;99.90
4695;DHT22;2361;49.540;8.390;2023-04-01T14:37:14;13.80;99.90
4695;DHT22;2361;49.540;8.390;2023-04-01T14:40:26;13.70;99.90
4695;DHT22;2361;49.540;8.390;2023-04-01T14:43:16;13.70;99.90
4695;DHT22;2361;49.540;8.390;2023-04-01T14:49:15;13.90;99.90
4695;DHT22;2361;49.540;8.390;2023-04-01T14:52:10;13.90;99.90
4695;DHT22;2361;49.540;8.390;2023-04-01T14:54:44;14.00;99.90
4695;DHT22;2361;49.540;8.390;2023-04-01T14:57:15;13.90;99.90
4695;DHT22;2361;49.540;8.390;2023-04-01T14:59:59;13.90;99.90
4695;DHT22;2361;49.540;8.390;2023-04-01T15:05:44;14.00;99.90
4695;DHT22;2361;49.540;8.390;2023-04-01T15:14:37;13.90;99.90
4695;DHT22;2361;49.540;8.390;2023-04-01T15:22:46;13.80;99.90
4695;DHT22;2361;49.540;8.390;2023-04-01T15:28:53;13.80;99.90
4695;DHT22;2361;49.540;8.390;2023-04-01T15:31:53;13.70;99.90
4695;DHT22;2361;49.540;8.390;2023-04-01T15:34:32;13.60;99.90
4695;DHT22;2361;49.540;8.390;2023-04-01T15:37:16;13.60;99.90
4695;DHT22;2361;49.540;8.390;2023-04-01T15:40:14;13.70;99.90
4695;DHT22;2361;49.540;8.390;2023-04-01T15:45:58;13.70;99.90
4695;DHT22;2361;49.540;8.390;2023-04-01T15:52:02;13.60;99.90
4695;DHT22;2361;49.540;8.390;2023-04-01T16:00:31;13.60;99.90
4695;DHT22;2361;49.540;8.390;2023-04-01T16:18:25;13.50;99.90
4695;DHT22;2361;49.540;8.390;2023-04-01T16:21:14;13.60;99.90
4695;DHT22;2361;49.540;8.390;2023-04-01T16:30:00;13.60;99.90
4695;DHT22;2361;49.540;8.390;2023-04-01T16:33:01;13.70;99.90
4695;DHT22;2361;49.540;8.390;2023-04-01T16:35:31;13.50;99.90
4695;DHT22;2361;49.540;8.390;2023-04-01T16:38:22;13.50;99.90
4695;DHT22;2361;49.540;8.390;2023-04-01T16:43:53;13.50;99.90
4695;DHT22;2361;49.540;8.390;2023-04-01T16:49:27;13.50;99.90
4695;DHT22;2361;49.540;8.390;2023-04-01T16:55:17;13.40;99.90
4695;DHT22;2361;49.540;8.390;2023-04-01T16:57:56;13.40;99.90
4695;DHT22;2361;49.540;8.390;2023-04-01T17:00:27;13.40;99.90
4695;DHT22;2361;49.540;8.390;2023-04-01T17:03:03;13.30;99.90
4695;DHT22;2361;49.540;8.390;2023-04-01T17:09:25;13.20;99.90
4695;DHT22;2361;49.540;8.390;2023-04-01T17:12:09;13.20;99.90
4695;DHT22;2361;49.540;8.390;2023-04-01T17:15:01;13.20;99.90
4695;DHT22;2361;49.540;8.390;2023-04-01T17:35:51;13.00;99.90
4695;DHT22;2361;49.540;8.390;2023-04-01T17:38:50;13.00;99.90
4695;DHT22;2361;49.540;8.390;2023-04-01T17:41:43;13.00;99.90
4695;DHT22;2361;49.540;8.390;2023-04-01T17:54:08;12.90;99.90
4695;DHT22;2361;49.540;8.390;2023-04-01T18:03:13;12.80;99.90
4695;DHT22;2361;49.540;8.390;2023-04-01T18:06:09;12.80;99.90
4695;DHT22;2361;49.540;8.390;2023-04-01T18:25:37;12.60;99.90
4695;DHT22;2361;49.540;8.390;2023-04-01T18:28:24;12.60;99.90
4695;DHT22;2361;49.540;8.390;2023-04-01T18:31:08;12.60;99.90
4695;DHT22;2361;49.540;8.390;2023-04-01T18:36:55;12.50;99.90
4695;DHT22;2361;49.540;8.390;2023-04-01T18:39:40;12.50;99.90
4695;DHT22;2361;49.540;8.390;2023-04-01T18:44:50;12.50;99.90
4695;DHT22;2361;49.540;8.390;2023-04-01T18:53:22;12.40;99.90
4695;DHT22;2361;49.540;8.390;2023-04-01T18:56:08;12.40;99.90
4695;DHT22;2361;49.540;8.390;2023-04-01T19:04:43;12.40;99.90
4695;DHT22;2361;49.540;8.390;2023-04-01T19:07:51;12.40;99.90
4695;DHT22;2361;49.540;8.390;2023-04-01T19:10:37;12.30;99.90
4695;DHT22;2361;49.540;8.390;2023-04-01T19:19:41;12.40;99.90
4695;DHT22;2361;49.540;8.390;2023-04-01T19:28:22;12.30;99.90
4695;DHT22;2361;49.540;8.390;2023-04-01T19:36:57;12.30;99.90
4695;DHT22;2361;49.540;8.390;2023-04-01T19:43:03;12.30;99.90
4695;DHT22;2361;49.540;8.390;2023-04-01T19:46:10;12.30;99.90
4695;DHT22;2361;49.540;8.390;2023-04-01T19:54:35;12.40;99.90
4695;DHT22;2361;49.540;8.390;2023-04-01T20:12:33;12.20;99.90
4695;DHT22;2361;49.540;8.390;2023-04-01T20:15:27;12.20;99.90
4695;DHT22;2361;49.540;8.390;2023-04-01T20:18:02;12.20;99.90
4695;DHT22;2361;49.540;8.390;2023-04-01T20:20:35;12.10;99.90
4695;DHT22;2361;49.540;8.390;2023-04-01T20:23:50;12.10;99.90
4695;DHT22;2361;49.540;8.390;2023-04-01T20:26:26;12.10;99.90
4695;DHT22;2361;49.540;8.390;2023-04-01T20:34:33;12.00;99.90
4695;DHT22;2361;49.540;8.390;2023-04-01T20:37:35;12.00;99.90
4695;DHT22;2361;49.540;8.390;2023-04-01T20:40:26;12.10;99.90
4695;DHT22;2361;49.540;8.390;2023-04-01T20:51:18;11.90;99.90
4695;DHT22;2361;49.540;8.390;2023-04-01T20:57:21;11.80;99.90
4695;DHT22;2361;49.540;8.390;2023-04-01T21:02:42;11.90;99.90
4695;DHT22;2361;49.540;8.390;2023-04-01T21:09:16;11.90;99.90
4695;DHT22;2361;49.540;8.390;2023-04-01T21:18:59;11.90;99.90
4695;DHT22;2361;49.540;8.390;2023-04-01T21:27:15;12.00;99.90
4695;DHT22;2361;49.540;8.390;2023-04-01T21:30:21;12.00;99.90
4695;DHT22;2361;49.540;8.390;2023-04-01T21:44:19;12.00;99.90
4695;DHT22;2361;49.540;8.390;2023-04-01T22:08:26;12.00;99.90
4695;DHT22;2361;49.540;8.390;2023-04-01T22:19:59;12.00;99.90
4695;DHT22;2361;49.540;8.390;2023-04-01T22:28:32;12.00;99.90
4695;DHT22;2361;49.540;8.390;2023-04-01T22:31:05;12.00;99.90
4695;DHT22;2361;49.540;8.390;2023-04-01T22:33:51;11.90;99.90
4695;DHT22;2361;49.540;8.390;2023-04-01T22:36:45;12.00;99.90
4695;DHT22;2361;49.540;8.390;2023-04-01T22:39:53;12.00;99.90
4695;DHT22;2361;49.540;8.390;2023-04-01T22:42:43;12.00;99.90
4695;DHT22;2361;49.540;8.390;2023-04-01T22:48:49;12.00;99.90
4695;DHT22;2361;49.540;8.390;2023-04-01T23:00:56;12.00;99.90
4695;DHT22;2361;49.540;8.390;2023-04-01T23:03:27;12.00;99.90
4695;DHT22;2361;49.540;8.390;2023-04-01T23:06:04;12.00;99.90
4695;DHT22;2361;49.540;8.390;2023-04-01T23:29:15;11.90;99.90
4695;DHT22;2361;49.540;8.390;2023-04-01T23:31:48;11.90;99.90
4695;DHT22;2361;49.540;8.390;2023-04-01T23:34:34;11.90;99.90
4695;DHT22;2361;49.540;8.390;2023-04-01T23:37:10;11.90;99.90
4695;DHT22;2361;49.540;8.390;2023-04-01T23:39:46;11.90;99.90
4695;DHT22;2361;49.540;8.390;2023-04-01T23:42:19;11.90;99.90
4695;DHT22;2361;49.540;8.390;2023-04-01T23:44:49;11.90;99.90
4695;DHT22;2361;49.540;8.390;2023-04-01T23:47:30;11.90;99.90
4695;DHT22;2361;49.540;8.390;2023-04-01T23:50:01;11.90;99.90
4695;DHT22;2361;49.540;8.390;2023-04-01T23:52:35;11.90;99.90
4695;DHT22;2361;49.540;8.390;2023-04-01T23:55:22;11.90;99.90
